Time;durP1;ratioP1;P1;durP2;ratioP2;P2;SDS_P1;SDS_P2;PMS_P1;PMS_P2;Temp;Humidity;BMP_temperature;BMP_pressure;BME280_temperature;BME280_humidity;BME280_pressure;Samples;Min_cycle;Max_cycle;Signal;HPM_P1;HPM_P2
2022/06/11 00:02:32;;;;;;;22.63;14.02;;;;;;;;;;6200342;28;20089;-61
2022/06/11 00:05:32;;;;;;;25.60;15.40;;;;;;;;;;6200094;28;20554;-61
2022/06/11 00:08:34;;;;;;;23.67;14.60;;;;;;;;;;6199788;28;20053;-60
2022/06/11 00:11:35;;;;;;;23.20;13.37;;;;;;;;;;6201293;28;20056;-60
2022/06/11 00:14:36;;;;;;;20.63;13.35;;;;;;;;;;6198434;28;20081;-61
2022/06/11 00:17:37;;;;;;;24.63;14.57;;;;;;;;;;6195102;28;20531;-61
2022/06/11 00:20:37;;;;;;;20.55;13.70;;;;;;;;;;6198785;28;20133;-60
2022/06/11 00:23:38;;;;;;;21.75;13.70;;;;;;;;;;6200209;28;20065;-61
2022/06/11 00:26:42;;;;;;;23.00;13.60;;;;;;;;;;6199000;28;20038;-61
2022/06/11 00:29:43;;;;;;;20.27;13.60;;;;;;;;;;6200714;28;20096;-60
2022/06/11 00:32:45;;;;;;;20.50;13.05;;;;;;;;;;6199548;28;20054;-61
2022/06/11 00:35:46;;;;;;;19.50;13.07;;;;;;;;;;6198275;28;20049;-60
2022/06/11 00:38:48;;;;;;;20.53;13.30;;;;;;;;;;6199699;28;20073;-61
2022/06/11 00:41:51;;;;;;;;;;;;;;;;;;6199948;28;20303;-60
2022/06/11 00:45:12;;;;;;;19.77;12.65;;;;;;;;;;6197862;28;19925;-60
2022/06/11 00:48:25;;;;;;;20.63;13.20;;;;;;;;;;6196698;28;20050;-60
2022/06/11 00:51:26;;;;;;;23.20;13.15;;;;;;;;;;6199060;28;20089;-60
2022/06/11 00:54:27;;;;;;;22.63;14.23;;;;;;;;;;6198988;28;20058;-60
2022/06/11 00:57:31;;;;;;;22.55;14.02;;;;;;;;;;6196834;28;20080;-61
2022/06/11 01:00:43;;;;;;;27.00;14.52;;;;;;;;;;6198635;28;20497;-60
2022/06/11 01:03:46;;;;;;;23.00;14.68;;;;;;;;;;6196080;28;20505;-60
2022/06/11 01:06:52;;;;;;;25.95;14.43;;;;;;;;;;6198445;28;20057;-60
2022/06/11 01:10:17;;;;;;;22.77;13.40;;;;;;;;;;6195804;28;20058;-59
2022/06/11 01:13:42;;;;;;;20.65;13.57;;;;;;;;;;6198618;28;20050;-60
2022/06/11 01:17:01;;;;;;;21.23;12.68;;;;;;;;;;6198893;28;20081;-61
2022/06/11 01:20:20;;;;;;;20.63;12.68;;;;;;;;;;6198211;28;20049;-60
2022/06/11 01:23:58;;;;;;;19.67;13.27;;;;;;;;;;6198481;28;20077;-60
2022/06/11 01:27:29;;;;;;;20.23;12.77;;;;;;;;;;6198204;28;20077;-60
2022/06/11 01:30:41;;;;;;;22.48;13.43;;;;;;;;;;6197521;28;20605;-59
2022/06/11 01:33:52;;;;;;;21.23;13.73;;;;;;;;;;6209246;28;20409;-60
2022/06/11 01:37:01;;;;;;;26.10;15.70;;;;;;;;;;6204264;28;20054;-61
2022/06/11 01:40:06;;;;;;;27.75;16.50;;;;;;;;;;6207296;28;20066;-61
2022/06/11 01:43:25;;;;;;;33.58;17.63;;;;;;;;;;6206120;28;20046;-61
2022/06/11 01:46:33;;;;;;;29.95;18.50;;;;;;;;;;6200001;28;20050;-60
2022/06/11 01:49:46;;;;;;;30.75;17.52;;;;;;;;;;6207298;28;20534;-60
2022/06/11 01:53:26;;;;;;;32.92;17.77;;;;;;;;;;6207228;28;20053;-60
2022/06/11 01:56:55;;;;;;;33.15;17.48;;;;;;;;;;6210030;28;20475;-60
2022/06/11 02:00:19;;;;;;;31.75;18.13;;;;;;;;;;6191839;28;20113;-60
2022/06/11 02:04:03;;;;;;;35.30;17.98;;;;;;;;;;6201306;28;20152;-60
2022/06/11 02:07:27;;;;;;;34.00;19.08;;;;;;;;;;6198654;28;20042;-61
2022/06/11 02:10:45;;;;;;;35.58;20.13;;;;;;;;;;6199688;28;20555;-60
2022/06/11 02:14:03;;;;;;;39.38;20.73;;;;;;;;;;6201470;28;20581;-59
2022/06/11 02:17:13;;;;;;;41.05;21.77;;;;;;;;;;6209285;28;20070;-60
2022/06/11 02:20:20;;;;;;;41.70;22.00;;;;;;;;;;6202642;28;20748;-61
2022/06/11 02:23:29;;;;;;;39.85;23.10;;;;;;;;;;6207095;28;20547;-59
2022/06/11 02:26:36;;;;;;;39.88;19.92;;;;;;;;;;6199702;28;20046;-61
2022/06/11 02:29:39;;;;;;;35.47;19.15;;;;;;;;;;6203891;28;20477;-60
2022/06/11 02:32:40;;;;;;;;;;;;;;;;;;6200878;28;20070;-59
2022/06/11 02:35:58;;;;;;;35.08;17.95;;;;;;;;;;6199067;28;19961;-61
2022/06/11 02:39:02;;;;;;;29.63;16.83;;;;;;;;;;6201603;28;20041;-60
2022/06/11 02:42:05;;;;;;;31.98;16.88;;;;;;;;;;6208876;28;20046;-61
2022/06/11 02:45:06;;;;;;;29.23;17.52;;;;;;;;;;6205770;28;20058;-60
2022/06/11 02:48:07;;;;;;;28.70;17.07;;;;;;;;;;6205173;28;20051;-60
2022/06/11 02:51:08;;;;;;;24.90;15.98;;;;;;;;;;6205131;28;20129;-61
2022/06/11 02:54:09;;;;;;;27.13;15.90;;;;;;;;;;6205469;28;20072;-61
2022/06/11 02:57:14;;;;;;;29.02;15.95;;;;;;;;;;6202991;28;20046;-61
2022/06/11 03:00:19;;;;;;;29.05;16.55;;;;;;;;;;6204008;28;20042;-61
2022/06/11 03:03:22;;;;;;;28.77;16.48;;;;;;;;;;6194144;28;20065;-60
2022/06/11 03:06:24;;;;;;;29.75;17.52;;;;;;;;;;6207979;28;20045;-60
2022/06/11 03:09:28;;;;;;;27.73;16.42;;;;;;;;;;6196846;28;20057;-61
2022/06/11 03:12:28;;;;;;;26.15;16.13;;;;;;;;;;6197025;28;20058;-60
2022/06/11 03:15:29;;;;;;;30.98;17.05;;;;;;;;;;6195867;28;20145;-61
2022/06/11 03:18:30;;;;;;;27.98;15.40;;;;;;;;;;6208959;28;20042;-60
2022/06/11 03:21:30;;;;;;;41.95;16.27;;;;;;;;;;6205855;28;20149;-60
2022/06/11 03:24:31;;;;;;;27.67;17.60;;;;;;;;;;6204961;28;20144;-61
2022/06/11 03:27:32;;;;;;;29.60;17.95;;;;;;;;;;6204210;28;20054;-60
2022/06/11 03:30:33;;;;;;;35.90;20.02;;;;;;;;;;6203047;28;20041;-60
2022/06/11 03:33:35;;;;;;;33.08;18.58;;;;;;;;;;6203768;28;20047;-61
2022/06/11 03:36:37;;;;;;;34.17;18.88;;;;;;;;;;6199065;28;20495;-61
2022/06/11 03:39:37;;;;;;;32.25;19.40;;;;;;;;;;6201871;28;20044;-60
2022/06/11 03:42:38;;;;;;;34.75;18.60;;;;;;;;;;6201712;28;20049;-60
2022/06/11 03:45:39;;;;;;;34.97;20.40;;;;;;;;;;6207242;28;20137;-61
2022/06/11 03:48:40;;;;;;;31.00;17.77;;;;;;;;;;6200946;28;20073;-61
2022/06/11 03:51:41;;;;;;;30.23;17.42;;;;;;;;;;6182663;28;20519;-60
2022/06/11 03:54:42;;;;;;;32.85;18.17;;;;;;;;;;6203441;28;20065;-60
2022/06/11 03:57:44;;;;;;;33.13;18.50;;;;;;;;;;6208408;28;20038;-59
2022/06/11 04:04:09;;;;;;;31.55;19.70;;;;;;;;;;6205075;28;20073;-61
2022/06/11 04:07:10;;;;;;;33.08;18.45;;;;;;;;;;6204393;28;20100;-59
2022/06/11 04:10:11;;;;;;;30.88;19.52;;;;;;;;;;6205111;28;20937;-60
2022/06/11 04:13:12;;;;;;;31.95;19.58;;;;;;;;;;6206429;28;20081;-60
2022/06/11 04:16:36;;;;;;;35.30;20.87;;;;;;;;;;6200326;28;20132;-60
2022/06/11 04:19:40;;;;;;;35.55;21.50;;;;;;;;;;6197961;28;20385;-61
2022/06/11 04:22:42;;;;;;;35.13;20.05;;;;;;;;;;6205741;28;20042;-61
2022/06/11 04:25:45;;;;;;;36.63;22.90;;;;;;;;;;6205559;28;20069;-61
2022/06/11 04:28:46;;;;;;;40.15;22.42;;;;;;;;;;6214576;28;20049;-59
2022/06/11 04:31:49;;;;;;;43.38;24.52;;;;;;;;;;6196041;28;20105;-59
2022/06/11 04:34:50;;;;;;;38.72;23.20;;;;;;;;;;6201721;28;20113;-58
2022/06/11 04:37:51;;;;;;;48.10;24.90;;;;;;;;;;6198574;28;20153;-60
2022/06/11 04:40:52;;;;;;;43.13;25.25;;;;;;;;;;6198776;28;20053;-60
2022/06/11 04:43:54;;;;;;;44.33;25.53;;;;;;;;;;6197272;28;20057;-60
2022/06/11 04:46:54;;;;;;;44.20;24.03;;;;;;;;;;6196533;28;20526;-60
2022/06/11 04:49:58;;;;;;;44.40;24.67;;;;;;;;;;6209321;28;20038;-59
2022/06/11 04:52:59;;;;;;;40.47;23.35;;;;;;;;;;6214979;28;20153;-60
2022/06/11 04:56:00;;;;;;;38.90;23.52;;;;;;;;;;6210980;28;20619;-59
2022/06/11 04:59:01;;;;;;;39.85;23.70;;;;;;;;;;6213305;28;20532;-60
2022/06/11 05:02:02;;;;;;;40.58;25.20;;;;;;;;;;6206907;28;20042;-60
2022/06/11 05:05:04;;;;;;;50.42;31.05;;;;;;;;;;6202644;28;20556;-60
2022/06/11 05:08:05;;;;;;;;;;;;;;;;;;6214196;28;20050;-59
2022/06/11 05:11:05;;;;;;;42.15;25.02;;;;;;;;;;6207705;28;19929;-60
2022/06/11 05:14:06;;;;;;;44.83;24.35;;;;;;;;;;6199571;28;20046;-60
2022/06/11 05:17:07;;;;;;;39.35;22.38;;;;;;;;;;6197053;28;20177;-60
2022/06/11 05:20:09;;;;;;;34.45;20.98;;;;;;;;;;6196852;28;20044;-60
2022/06/11 05:23:10;;;;;;;37.15;20.10;;;;;;;;;;6198917;28;20136;-60
2022/06/11 05:26:22;;;;;;;35.13;21.02;;;;;;;;;;6196843;28;20072;-60
2022/06/11 05:29:29;;;;;;;39.20;20.23;;;;;;;;;;6196941;28;20539;-61
2022/06/11 05:32:33;;;;;;;36.72;20.67;;;;;;;;;;6198796;28;20045;-61
2022/06/11 05:35:35;;;;;;;39.38;20.23;;;;;;;;;;6200517;28;20508;-60
2022/06/11 05:38:35;;;;;;;39.10;19.40;;;;;;;;;;6211606;28;20449;-60
2022/06/11 05:41:36;;;;;;;32.17;17.30;;;;;;;;;;6216043;28;20042;-59
2022/06/11 05:44:37;;;;;;;30.20;17.63;;;;;;;;;;6216142;28;20575;-60
2022/06/11 05:47:37;;;;;;;27.52;17.02;;;;;;;;;;6208255;28;20121;-60
2022/06/11 05:50:41;;;;;;;25.23;14.85;;;;;;;;;;6204878;28;20061;-60
2022/06/11 05:53:42;;;;;;;25.17;12.85;;;;;;;;;;6206346;28;20057;-59
2022/06/11 05:56:43;;;;;;;16.37;9.83;;;;;;;;;;6211846;28;20042;-59
2022/06/11 05:59:48;;;;;;;14.95;9.90;;;;;;;;;;6211978;28;20398;-59
2022/06/11 06:02:49;;;;;;;15.38;9.10;;;;;;;;;;6210491;28;20042;-59
2022/06/11 06:05:52;;;;;;;12.63;8.00;;;;;;;;;;6212154;28;20131;-60
2022/06/11 06:08:53;;;;;;;11.43;6.95;;;;;;;;;;6180713;28;20046;-60
2022/06/11 06:11:53;;;;;;;11.55;7.63;;;;;;;;;;6197583;28;20417;-60
2022/06/11 06:15:04;;;;;;;14.18;7.63;;;;;;;;;;6197050;28;20133;-60
2022/06/11 06:18:04;;;;;;;12.20;6.60;;;;;;;;;;6190565;28;20064;-60
2022/06/11 06:21:05;;;;;;;9.38;5.53;;;;;;;;;;6195472;28;20042;-63
2022/06/11 06:24:06;;;;;;;7.05;4.47;;;;;;;;;;6192912;28;20218;-61
2022/06/11 06:27:07;;;;;;;7.15;4.32;;;;;;;;;;6192648;28;20058;-60
2022/06/11 06:30:08;;;;;;;8.65;4.72;;;;;;;;;;6192628;28;20075;-59
2022/06/11 06:33:09;;;;;;;6.35;3.90;;;;;;;;;;6191883;28;20057;-62
2022/06/11 06:36:10;;;;;;;6.75;4.15;;;;;;;;;;6189269;28;20149;-61
2022/06/11 06:39:11;;;;;;;6.20;4.18;;;;;;;;;;6192570;28;20128;-62
2022/06/11 06:42:11;;;;;;;5.60;3.67;;;;;;;;;;6197220;28;20073;-59
2022/06/11 06:45:12;;;;;;;6.28;3.67;;;;;;;;;;6194760;28;20144;-59
2022/06/11 06:48:13;;;;;;;5.65;3.50;;;;;;;;;;6189169;28;20046;-58
2022/06/11 06:51:15;;;;;;;7.55;3.78;;;;;;;;;;6195659;28;20141;-60
2022/06/11 06:54:15;;;;;;;7.80;4.20;;;;;;;;;;6191892;28;20085;-61
2022/06/11 06:57:17;;;;;;;10.32;4.13;;;;;;;;;;6186694;28;20710;-60
2022/06/11 07:00:18;;;;;;;8.02;4.22;;;;;;;;;;6188827;28;20176;-60
2022/06/11 07:03:18;;;;;;;8.97;5.20;;;;;;;;;;6185062;28;20073;-58
2022/06/11 07:06:19;;;;;;;7.10;4.20;;;;;;;;;;6183958;28;20048;-60
2022/06/11 07:09:20;;;;;;;7.13;4.18;;;;;;;;;;6187703;28;20058;-60
2022/06/11 07:12:21;;;;;;;6.20;4.40;;;;;;;;;;6187895;28;20954;-59
2022/06/11 07:15:22;;;;;;;7.37;4.03;;;;;;;;;;6185706;28;20559;-60
2022/06/11 07:18:29;;;;;;;7.82;4.90;;;;;;;;;;6179158;28;20823;-60
2022/06/11 07:21:37;;;;;;;9.15;5.00;;;;;;;;;;6184650;28;20069;-60
2022/06/11 07:24:41;;;;;;;6.00;4.43;;;;;;;;;;6187810;28;20504;-60
2022/06/11 07:27:45;;;;;;;7.88;4.88;;;;;;;;;;6185934;28;20077;-60
2022/06/11 07:30:46;;;;;;;9.68;4.85;;;;;;;;;;6185546;28;20843;-60
2022/06/11 07:33:48;;;;;;;5.67;4.30;;;;;;;;;;6187057;28;20050;-59
2022/06/11 07:36:49;;;;;;;6.95;4.20;;;;;;;;;;6186231;28;20057;-60
2022/06/11 07:39:50;;;;;;;7.75;4.88;;;;;;;;;;6187463;28;20529;-60
2022/06/11 07:42:50;;;;;;;7.17;4.77;;;;;;;;;;6186607;28;20064;-60
2022/06/11 07:45:51;;;;;;;7.00;4.90;;;;;;;;;;6187364;28;20058;-59
2022/06/11 07:48:52;;;;;;;8.73;4.60;;;;;;;;;;6192507;28;20050;-60
2022/06/11 07:51:52;;;;;;;9.27;4.57;;;;;;;;;;6197104;28;20089;-58
2022/06/11 07:54:53;;;;;;;6.27;4.10;;;;;;;;;;6192078;28;20058;-59
2022/06/11 07:57:55;;;;;;;8.67;4.50;;;;;;;;;;6186006;28;20051;-59
2022/06/11 08:00:57;;;;;;;6.90;4.53;;;;;;;;;;6182364;28;20072;-60
2022/06/11 08:03:57;;;;;;;8.63;4.70;;;;;;;;;;6186046;28;20104;-60
2022/06/11 08:06:58;;;;;;;7.17;4.37;;;;;;;;;;6185234;28;20042;-60
2022/06/11 08:09:58;;;;;;;6.53;4.40;;;;;;;;;;6191223;28;20690;-60
2022/06/11 08:12:59;;;;;;;9.07;4.35;;;;;;;;;;6193829;28;20045;-60
2022/06/11 08:16:00;;;;;;;8.60;3.90;;;;;;;;;;6188479;28;20061;-60
2022/06/11 08:19:01;;;;;;;6.57;3.90;;;;;;;;;;6189987;28;20616;-60
2022/06/11 08:22:02;;;;;;;7.73;4.03;;;;;;;;;;6190009;28;20057;-60
2022/06/11 08:25:03;;;;;;;6.97;3.73;;;;;;;;;;6193885;28;20038;-63
2022/06/11 08:28:05;;;;;;;7.35;3.70;;;;;;;;;;6186968;28;20141;-59
2022/06/11 08:31:05;;;;;;;9.25;3.72;;;;;;;;;;6187496;28;20043;-59
2022/06/11 08:34:06;;;;;;;5.93;3.27;;;;;;;;;;6197455;28;20046;-60
2022/06/11 08:37:07;;;;;;;6.23;3.30;;;;;;;;;;6197715;28;20517;-59
2022/06/11 08:40:17;;;;;;;6.55;3.35;;;;;;;;;;6198371;28;20062;-60
2022/06/11 08:43:28;;;;;;;5.13;3.28;;;;;;;;;;6196026;28;20082;-60
2022/06/11 08:46:34;;;;;;;6.90;3.43;;;;;;;;;;6196934;28;20073;-59
2022/06/11 08:49:55;;;;;;;8.45;4.45;;;;;;;;;;6194558;28;20053;-60
2022/06/11 08:52:56;;;;;;;6.78;3.40;;;;;;;;;;6198983;28;20461;-60
2022/06/11 08:55:57;;;;;;;6.87;3.27;;;;;;;;;;6198937;28;20054;-60
2022/06/11 08:59:23;;;;;;;6.75;3.47;;;;;;;;;;6197204;28;20057;-60
2022/06/11 09:02:42;;;;;;;6.13;3.20;;;;;;;;;;6200188;28;20053;-59
2022/06/11 09:06:28;;;;;;;6.70;3.20;;;;;;;;;;6188363;28;20081;-59
2022/06/11 09:10:03;;;;;;;7.32;3.58;;;;;;;;;;6155920;28;20053;-59
2022/06/11 09:13:41;;;;;;;5.07;2.83;;;;;;;;;;6188622;28;20485;-60
2022/06/11 09:17:06;;;;;;;8.65;3.03;;;;;;;;;;6191403;28;20092;-59
2022/06/11 09:20:28;;;;;;;5.60;2.90;;;;;;;;;;6188431;28;20180;-60
2022/06/11 09:23:58;;;;;;;5.18;2.80;;;;;;;;;;6184194;28;20037;-58
2022/06/11 09:27:13;;;;;;;4.82;2.42;;;;;;;;;;6186166;28;20065;-60
2022/06/11 09:30:26;;;;;;;6.93;2.72;;;;;;;;;;6182974;28;20062;-59
2022/06/11 09:33:37;;;;;;;11.23;2.80;;;;;;;;;;6189847;28;20104;-60
2022/06/11 09:36:46;;;;;;;7.07;2.63;;;;;;;;;;6189284;28;20053;-60
2022/06/11 09:39:57;;;;;;;3.80;2.45;;;;;;;;;;6187343;28;20074;-60
2022/06/11 09:43:19;;;;;;;4.10;2.55;;;;;;;;;;6188304;28;20457;-60
2022/06/11 09:46:39;;;;;;;5.65;3.20;;;;;;;;;;6186504;28;20589;-60
2022/06/11 09:49:49;;;;;;;6.75;2.55;;;;;;;;;;6186528;28;20062;-60
2022/06/11 09:52:53;;;;;;;4.35;2.33;;;;;;;;;;6191386;28;20138;-60
2022/06/11 09:56:05;;;;;;;6.05;2.53;;;;;;;;;;6194530;28;20050;-60
2022/06/11 09:59:23;;;;;;;3.97;2.30;;;;;;;;;;6190771;28;20072;-60
2022/06/11 10:02:37;;;;;;;4.72;2.10;;;;;;;;;;6189472;28;20153;-61
2022/06/11 10:05:50;;;;;;;4.25;2.20;;;;;;;;;;6185714;28;20133;-60
2022/06/11 10:08:57;;;;;;;4.18;1.90;;;;;;;;;;6193141;28;20053;-59
2022/06/11 10:12:13;;;;;;;6.63;2.10;;;;;;;;;;6190567;28;20514;-59
2022/06/11 10:15:17;;;;;;;5.97;2.83;;;;;;;;;;6189793;28;20058;-60
2022/06/11 10:18:24;;;;;;;4.43;2.50;;;;;;;;;;6194417;28;20517;-61
2022/06/11 10:21:28;;;;;;;5.72;2.08;;;;;;;;;;6191392;28;21969;-59
2022/06/11 10:24:30;;;;;;;4.38;2.20;;;;;;;;;;6191639;28;20080;-60
2022/06/11 10:27:37;;;;;;;4.18;1.80;;;;;;;;;;6194848;28;20054;-60
2022/06/11 10:31:07;;;;;;;4.57;1.90;;;;;;;;;;6193615;28;21472;-60
2022/06/11 10:34:17;;;;;;;3.88;1.92;;;;;;;;;;6181791;28;20061;-61
2022/06/11 10:37:26;;;;;;;4.03;2.00;;;;;;;;;;6185671;28;20519;-59
2022/06/11 10:40:33;;;;;;;5.03;2.45;;;;;;;;;;6187040;28;20517;-60
2022/06/11 10:43:47;;;;;;;3.97;1.92;;;;;;;;;;6186039;28;20136;-59
2022/06/11 10:46:47;;;;;;;5.30;2.28;;;;;;;;;;6189242;28;20934;-59
2022/06/11 10:50:17;;;;;;;4.23;2.13;;;;;;;;;;6184616;28;20058;-61
2022/06/11 10:53:25;;;;;;;4.05;2.20;;;;;;;;;;6186378;28;20053;-59
2022/06/11 10:56:42;;;;;;;4.75;2.17;;;;;;;;;;6186480;28;20058;-59
2022/06/11 10:59:49;;;;;;;4.43;2.28;;;;;;;;;;6186879;28;20049;-59
2022/06/11 11:03:00;;;;;;;5.45;2.75;;;;;;;;;;6185407;28;20086;-59
2022/06/11 11:06:17;;;;;;;4.68;2.90;;;;;;;;;;6186955;28;20058;-60
2022/06/11 11:09:23;;;;;;;7.20;2.90;;;;;;;;;;6186664;28;20093;-59
2022/06/11 11:12:29;;;;;;;4.40;2.45;;;;;;;;;;6186466;28;20046;-59
2022/06/11 11:15:38;;;;;;;4.18;2.40;;;;;;;;;;6182503;28;20563;-60
2022/06/11 11:18:41;;;;;;;5.03;2.75;;;;;;;;;;6185853;28;20050;-59
2022/06/11 11:22:09;;;;;;;5.03;2.83;;;;;;;;;;6186690;28;20826;-60
2022/06/11 11:25:15;;;;;;;4.78;2.50;;;;;;;;;;6185536;28;20050;-59
2022/06/11 11:28:24;;;;;;;9.77;3.20;;;;;;;;;;6191656;28;20057;-60
2022/06/11 11:31:31;;;;;;;9.50;2.90;;;;;;;;;;6188858;28;20176;-59
2022/06/11 11:34:50;;;;;;;6.57;2.50;;;;;;;;;;6186144;28;21240;-60
2022/06/11 11:38:01;;;;;;;7.03;2.75;;;;;;;;;;6185807;28;20517;-59
2022/06/11 11:41:03;;;;;;;5.57;2.53;;;;;;;;;;6188299;28;20045;-60
2022/06/11 11:44:04;;;;;;;14.98;3.47;;;;;;;;;;6191288;28;20153;-60
2022/06/11 11:47:14;;;;;;;5.93;2.70;;;;;;;;;;6192827;28;21187;-60
2022/06/11 11:50:14;;;;;;;4.97;2.90;;;;;;;;;;6193312;28;20168;-60
2022/06/11 11:53:46;;;;;;;18.10;4.43;;;;;;;;;;6193919;28;20104;-60
2022/06/11 11:56:49;;;;;;;5.38;2.97;;;;;;;;;;6192315;28;20054;-56
2022/06/11 11:59:59;;;;;;;9.05;3.35;;;;;;;;;;6189953;28;20082;-59
2022/06/11 12:03:04;;;;;;;6.70;2.40;;;;;;;;;;6191767;28;20528;-59
2022/06/11 12:06:07;;;;;;;4.15;2.45;;;;;;;;;;6190305;28;20153;-59
2022/06/11 12:09:19;;;;;;;7.50;2.90;;;;;;;;;;6192410;28;20586;-59
2022/06/11 12:12:34;;;;;;;6.13;2.75;;;;;;;;;;6191006;28;20111;-60
2022/06/11 12:15:35;;;;;;;4.25;2.38;;;;;;;;;;6190239;28;20038;-59
2022/06/11 12:18:53;;;;;;;5.37;2.70;;;;;;;;;;6192557;28;20452;-59
2022/06/11 12:22:00;;;;;;;6.20;2.45;;;;;;;;;;6190117;28;20078;-59
2022/06/11 12:25:02;;;;;;;4.35;2.47;;;;;;;;;;6189793;28;20142;-60
2022/06/11 12:28:02;;;;;;;6.03;2.50;;;;;;;;;;6193120;28;20054;-60
2022/06/11 12:31:04;;;;;;;6.50;2.70;;;;;;;;;;6191060;28;20141;-60
2022/06/11 12:34:13;;;;;;;4.60;2.63;;;;;;;;;;6190191;28;20058;-60
2022/06/11 12:37:25;;;;;;;7.55;2.75;;;;;;;;;;6188699;28;20077;-59
2022/06/11 12:40:46;;;;;;;;;;;;;;;;;;6189009;28;20050;-60
2022/06/11 12:43:59;;;;;;;5.35;2.45;;;;;;;;;;6192516;28;19968;-60
2022/06/11 12:47:11;;;;;;;4.55;2.72;;;;;;;;;;6192961;28;20049;-60
2022/06/11 12:50:41;;;;;;;5.05;3.20;;;;;;;;;;6192740;28;20145;-60
2022/06/11 12:53:56;;;;;;;5.50;3.53;;;;;;;;;;6186560;28;20054;-60
2022/06/11 12:57:23;;;;;;;7.13;3.22;;;;;;;;;;6195973;28;20073;-60
2022/06/11 13:00:45;;;;;;;5.90;3.22;;;;;;;;;;6197524;28;20052;-59
2022/06/11 13:04:13;;;;;;;4.97;3.30;;;;;;;;;;6192400;28;20058;-60
2022/06/11 13:07:16;;;;;;;7.28;2.95;;;;;;;;;;6197138;28;20050;-60
2022/06/11 13:10:41;;;;;;;5.55;3.00;;;;;;;;;;6197401;28;20223;-59
2022/06/11 13:13:50;;;;;;;5.22;3.17;;;;;;;;;;6193236;28;20053;-60
2022/06/11 13:17:16;;;;;;;7.53;3.13;;;;;;;;;;6193187;28;20200;-58
2022/06/11 13:20:21;;;;;;;5.72;3.25;;;;;;;;;;6196272;28;20053;-60
2022/06/11 13:23:33;;;;;;;5.97;3.55;;;;;;;;;;6195562;28;20094;-60
2022/06/11 13:26:56;;;;;;;6.57;3.80;;;;;;;;;;6195879;28;20053;-60
2022/06/11 13:30:23;;;;;;;6.50;3.90;;;;;;;;;;6193546;28;20176;-60
2022/06/11 13:33:44;;;;;;;5.32;3.58;;;;;;;;;;6175329;28;20816;-60
2022/06/11 13:37:08;;;;;;;9.05;3.83;;;;;;;;;;6193153;28;20064;-60
2022/06/11 13:40:29;;;;;;;6.45;3.45;;;;;;;;;;6194932;28;20053;-61
2022/06/11 13:43:44;;;;;;;7.07;3.60;;;;;;;;;;6192780;28;20153;-60
2022/06/11 13:46:50;;;;;;;5.22;3.30;;;;;;;;;;6191014;28;20465;-61
2022/06/11 13:50:00;;;;;;;5.95;3.33;;;;;;;;;;6200452;28;20061;-60
2022/06/11 13:57:05;;;;;;;5.43;3.30;;;;;;;;;;6191912;28;20046;-60
2022/06/11 14:00:24;;;;;;;5.45;3.60;;;;;;;;;;6192395;28;20050;-61
2022/06/11 14:03:46;;;;;;;6.38;3.88;;;;;;;;;;6195008;28;20557;-61
2022/06/11 14:06:47;;;;;;;5.28;3.50;;;;;;;;;;6194816;28;20054;-60
2022/06/11 14:10:21;;;;;;;5.38;3.25;;;;;;;;;;6194025;28;20133;-59
2022/06/11 14:13:21;;;;;;;7.32;3.20;;;;;;;;;;6191863;28;21156;-60
2022/06/11 14:16:31;;;;;;;7.73;3.67;;;;;;;;;;6172403;28;20054;-60
2022/06/11 14:19:38;;;;;;;7.45;3.28;;;;;;;;;;6194433;28;20043;-60
2022/06/11 14:22:52;;;;;;;4.80;3.25;;;;;;;;;;6187374;28;20492;-61
2022/06/11 14:25:53;;;;;;;5.85;3.45;;;;;;;;;;6192217;28;20057;-59
2022/06/11 14:29:00;;;;;;;6.32;3.63;;;;;;;;;;6192991;28;20153;-61
2022/06/11 14:32:26;;;;;;;5.30;3.47;;;;;;;;;;6194030;28;20069;-60
2022/06/11 14:35:52;;;;;;;6.90;3.92;;;;;;;;;;6196087;28;21357;-61
2022/06/11 14:38:56;;;;;;;8.38;3.90;;;;;;;;;;6195192;28;20088;-60
2022/06/11 14:42:08;;;;;;;6.75;3.70;;;;;;;;;;6193919;28;20398;-60
2022/06/11 14:45:37;;;;;;;10.00;3.85;;;;;;;;;;6192434;28;20101;-60
2022/06/11 14:48:40;;;;;;;8.68;4.20;;;;;;;;;;6190819;28;20076;-60
2022/06/11 14:52:02;;;;;;;7.50;3.92;;;;;;;;;;6187962;28;20081;-60
2022/06/11 14:55:17;;;;;;;;;;;;;;;;;;6197592;28;20112;-61
2022/06/11 14:58:30;;;;;;;10.32;3.97;;;;;;;;;;6198942;28;20147;-60
2022/06/11 15:01:50;;;;;;;7.72;4.07;;;;;;;;;;6194406;28;20146;-61
2022/06/11 15:05:00;;;;;;;7.25;4.47;;;;;;;;;;6194801;28;20085;-60
2022/06/11 15:08:42;;;;;;;7.38;4.30;;;;;;;;;;6192668;28;20038;-60
2022/06/11 15:12:09;;;;;;;7.20;3.80;;;;;;;;;;6174456;28;20046;-61
2022/06/11 15:15:41;;;;;;;9.63;4.07;;;;;;;;;;6187991;28;20137;-61
2022/06/11 15:18:48;;;;;;;7.45;3.90;;;;;;;;;;6189812;28;20057;-60
2022/06/11 15:21:52;;;;;;;8.95;3.90;;;;;;;;;;6191703;28;21736;-60
2022/06/11 15:24:57;;;;;;;6.20;4.05;;;;;;;;;;6192129;28;20141;-60
2022/06/11 15:28:02;;;;;;;8.23;4.75;;;;;;;;;;6192800;28;20137;-60
2022/06/11 15:31:09;;;;;;;8.32;4.30;;;;;;;;;;6191166;28;20078;-60
2022/06/11 15:34:36;;;;;;;10.27;4.80;;;;;;;;;;6190376;28;20089;-61
2022/06/11 15:37:44;;;;;;;6.75;4.63;;;;;;;;;;6193150;28;20046;-60
2022/06/11 15:40:51;;;;;;;7.32;4.57;;;;;;;;;;6193138;28;20141;-60
2022/06/11 15:44:14;;;;;;;8.60;4.07;;;;;;;;;;6185178;28;20060;-60
2022/06/11 15:47:16;;;;;;;7.60;3.92;;;;;;;;;;6192206;28;20069;-60
2022/06/11 15:50:19;;;;;;;6.35;4.25;;;;;;;;;;6194442;28;20142;-60
2022/06/11 15:53:23;;;;;;;7.15;4.45;;;;;;;;;;6192144;28;20470;-59
2022/06/11 15:56:32;;;;;;;9.43;4.78;;;;;;;;;;6192995;28;20046;-60
2022/06/11 15:59:33;;;;;;;10.55;4.75;;;;;;;;;;6189821;28;20141;-60
2022/06/11 16:02:34;;;;;;;9.83;4.10;;;;;;;;;;6190175;28;20057;-60
2022/06/11 16:05:39;;;;;;;7.43;4.18;;;;;;;;;;6188599;28;20100;-61
2022/06/11 16:08:45;;;;;;;6.32;3.70;;;;;;;;;;6193884;28;20545;-60
2022/06/11 16:11:51;;;;;;;9.00;4.03;;;;;;;;;;6191989;28;20138;-60
2022/06/11 16:14:53;;;;;;;6.47;3.80;;;;;;;;;;6191230;28;20065;-59
2022/06/11 16:17:55;;;;;;;9.55;4.18;;;;;;;;;;6193577;28;20148;-60
2022/06/11 16:20:58;;;;;;;7.88;4.30;;;;;;;;;;6190246;28;20061;-59
2022/06/11 16:23:59;;;;;;;6.88;4.10;;;;;;;;;;6192188;28;20050;-60
2022/06/11 16:27:02;;;;;;;8.23;4.00;;;;;;;;;;6191977;28;20452;-60
2022/06/11 16:30:19;;;;;;;6.07;3.78;;;;;;;;;;6196773;28;20176;-60
2022/06/11 16:33:25;;;;;;;7.15;3.75;;;;;;;;;;6194796;28;20120;-60
2022/06/11 16:36:32;;;;;;;6.53;3.75;;;;;;;;;;6191542;28;20178;-60
2022/06/11 16:39:36;;;;;;;7.78;3.70;;;;;;;;;;6197006;28;20050;-60
2022/06/11 16:42:47;;;;;;;6.72;3.88;;;;;;;;;;6197013;28;20176;-59
2022/06/11 16:45:54;;;;;;;7.60;3.60;;;;;;;;;;6194839;28;20098;-60
2022/06/11 16:48:56;;;;;;;6.57;3.97;;;;;;;;;;6194936;28;20050;-60
2022/06/11 16:58:41;;;;;;;7.30;4.05;;;;;;;;;;6193225;28;20131;-60
2022/06/11 17:01:44;;;;;;;6.77;3.97;;;;;;;;;;6193340;28;20054;-61
2022/06/11 17:04:59;;;;;;;5.28;3.70;;;;;;;;;;6191836;28;20046;-60
2022/06/11 17:08:00;;;;;;;8.25;3.95;;;;;;;;;;6195319;28;20192;-60
2022/06/11 17:11:03;;;;;;;10.50;4.30;;;;;;;;;;6192000;28;20433;-60
2022/06/11 17:14:04;;;;;;;8.43;4.30;;;;;;;;;;6188203;28;20054;-60
2022/06/11 17:17:05;;;;;;;8.68;3.90;;;;;;;;;;6192648;28;20058;-59
2022/06/11 17:20:06;;;;;;;8.50;3.80;;;;;;;;;;6195990;28;20812;-60
2022/06/11 17:23:13;;;;;;;7.87;3.60;;;;;;;;;;6193651;28;20046;-59
2022/06/11 17:26:20;;;;;;;8.02;3.67;;;;;;;;;;6192972;28;20185;-59
2022/06/11 17:29:22;;;;;;;7.07;3.53;;;;;;;;;;6189958;28;21168;-60
2022/06/11 17:32:24;;;;;;;8.57;3.45;;;;;;;;;;6192959;28;20138;-59
2022/06/11 17:35:24;;;;;;;4.93;3.40;;;;;;;;;;6191379;28;20054;-62
2022/06/11 17:38:35;;;;;;;6.83;3.57;;;;;;;;;;6194402;28;20193;-59
2022/06/11 17:41:35;;;;;;;5.50;3.47;;;;;;;;;;6190203;28;20069;-61
2022/06/11 17:44:36;;;;;;;7.53;3.70;;;;;;;;;;6196237;28;20057;-60
2022/06/11 17:47:37;;;;;;;5.75;3.67;;;;;;;;;;6190810;28;20727;-60
2022/06/11 17:50:40;;;;;;;9.23;3.90;;;;;;;;;;6196374;28;20120;-60
2022/06/11 17:53:42;;;;;;;8.00;3.70;;;;;;;;;;6193026;28;20302;-60
2022/06/11 17:56:42;;;;;;;8.30;3.65;;;;;;;;;;6196181;28;20191;-60
2022/06/11 17:59:43;;;;;;;10.00;3.93;;;;;;;;;;6192938;28;20049;-60
2022/06/11 18:03:14;;;;;;;6.90;4.10;;;;;;;;;;6194915;28;20096;-61
2022/06/11 18:06:15;;;;;;;7.18;4.10;;;;;;;;;;6192523;28;20049;-61
2022/06/11 18:09:16;;;;;;;7.38;3.60;;;;;;;;;;6196684;28;20145;-61
2022/06/11 18:12:16;;;;;;;11.03;4.10;;;;;;;;;;6197516;28;20064;-60
2022/06/11 18:15:20;;;;;;;7.13;3.73;;;;;;;;;;6194509;28;20131;-60
2022/06/11 18:18:33;;;;;;;8.25;3.67;;;;;;;;;;6195641;28;20683;-61
2022/06/11 18:28:12;;;;;;;8.40;4.10;;;;;;;;;;6194146;28;20069;-60
2022/06/11 18:31:13;;;;;;;9.07;5.53;;;;;;;;;;6195011;28;20046;-60
2022/06/11 18:34:15;;;;;;;8.67;5.00;;;;;;;;;;6192496;28;20115;-60
2022/06/11 18:37:16;;;;;;;8.68;4.88;;;;;;;;;;6192065;28;20533;-59
2022/06/11 18:40:22;;;;;;;8.67;4.17;;;;;;;;;;6195272;28;20069;-60
2022/06/11 18:43:25;;;;;;;12.27;4.78;;;;;;;;;;6189906;28;20053;-60
2022/06/11 18:46:25;;;;;;;14.38;5.70;;;;;;;;;;6192424;28;20149;-60
2022/06/11 18:49:26;;;;;;;10.03;5.53;;;;;;;;;;6193791;28;20058;-60
2022/06/11 18:52:28;;;;;;;9.20;6.00;;;;;;;;;;6193695;28;20045;-60
2022/06/11 18:55:29;;;;;;;8.82;6.10;;;;;;;;;;6189798;28;20117;-60
2022/06/11 18:58:30;;;;;;;11.40;6.30;;;;;;;;;;6191062;28;20069;-60